sensor_id;sensor_type;location;lat;lon;timestamp;temperature;humidity
62154;DHT22;48140;45.486;9.226;2023-02-15T00:01:19;9.20;84.00
62154;DHT22;48140;45.486;9.226;2023-02-15T00:03:44;9.10;84.00
62154;DHT22;48140;45.486;9.226;2023-02-15T00:06:12;9.10;83.90
62154;DHT22;48140;45.486;9.226;2023-02-15T00:08:38;9.20;84.00
62154;DHT22;48140;45.486;9.226;2023-02-15T00:11:15;9.10;84.00
62154;DHT22;48140;45.486;9.226;2023-02-15T00:13:41;9.10;84.10
62154;DHT22;48140;45.486;9.226;2023-02-15T00:16:10;9.10;84.10
62154;DHT22;48140;45.486;9.226;2023-02-15T00:18:37;9.10;84.30
62154;DHT22;48140;45.486;9.226;2023-02-15T00:21:05;9.10;84.40
62154;DHT22;48140;45.486;9.226;2023-02-15T00:23:32;9.10;84.30
62154;DHT22;48140;45.486;9.226;2023-02-15T00:28:31;9.00;84.40
62154;DHT22;48140;45.486;9.226;2023-02-15T00:31:10;9.00;84.60
62154;DHT22;48140;45.486;9.226;2023-02-15T00:33:37;9.00;84.50
62154;DHT22;48140;45.486;9.226;2023-02-15T00:36:04;9.00;84.70
62154;DHT22;48140;45.486;9.226;2023-02-15T00:38:31;8.90;84.70
62154;DHT22;48140;45.486;9.226;2023-02-15T00:40:58;8.90;84.70
62154;DHT22;48140;45.486;9.226;2023-02-15T00:43:25;8.90;84.90
62154;DHT22;48140;45.486;9.226;2023-02-15T00:45:51;8.90;84.70
62154;DHT22;48140;45.486;9.226;2023-02-15T00:48:18;8.90;84.90
62154;DHT22;48140;45.486;9.226;2023-02-15T00:50:52;8.90;85.20
62154;DHT22;48140;45.486;9.226;2023-02-15T00:53:18;8.90;85.40
62154;DHT22;48140;45.486;9.226;2023-02-15T00:55:44;8.80;85.30
62154;DHT22;48140;45.486;9.226;2023-02-15T00:58:10;8.80;85.30
62154;DHT22;48140;45.486;9.226;2023-02-15T01:00:37;8.80;85.50
62154;DHT22;48140;45.486;9.226;2023-02-15T01:03:04;8.80;85.60
62154;DHT22;48140;45.486;9.226;2023-02-15T01:05:30;8.80;85.90
62154;DHT22;48140;45.486;9.226;2023-02-15T01:07:56;8.70;85.70
62154;DHT22;48140;45.486;9.226;2023-02-15T01:10:22;8.80;85.80
62154;DHT22;48140;45.486;9.226;2023-02-15T01:12:50;8.70;86.00
62154;DHT22;48140;45.486;9.226;2023-02-15T01:15:15;8.60;86.00
62154;DHT22;48140;45.486;9.226;2023-02-15T01:17:41;8.60;86.20
62154;DHT22;48140;45.486;9.226;2023-02-15T01:20:08;8.60;86.40
62154;DHT22;48140;45.486;9.226;2023-02-15T01:22:33;8.50;87.30
62154;DHT22;48140;45.486;9.226;2023-02-15T01:24:59;8.50;87.80
62154;DHT22;48140;45.486;9.226;2023-02-15T01:27:24;8.40;88.00
62154;DHT22;48140;45.486;9.226;2023-02-15T01:29:51;8.40;87.80
62154;DHT22;48140;45.486;9.226;2023-02-15T01:32:17;8.30;87.80
62154;DHT22;48140;45.486;9.226;2023-02-15T01:34:42;8.30;88.10
62154;DHT22;48140;45.486;9.226;2023-02-15T01:37:08;8.40;88.30
62154;DHT22;48140;45.486;9.226;2023-02-15T01:39:33;8.10;88.60
62154;DHT22;48140;45.486;9.226;2023-02-15T01:41:59;8.00;88.90
62154;DHT22;48140;45.486;9.226;2023-02-15T01:44:51;7.90;88.90
62154;DHT22;48140;45.486;9.226;2023-02-15T01:47:36;7.80;89.60
62154;DHT22;48140;45.486;9.226;2023-02-15T01:50:11;7.90;89.80
62154;DHT22;48140;45.486;9.226;2023-02-15T01:52:42;7.80;89.50
62154;DHT22;48140;45.486;9.226;2023-02-15T01:55:10;7.80;90.30
62154;DHT22;48140;45.486;9.226;2023-02-15T01:57:36;7.80;89.30
62154;DHT22;48140;45.486;9.226;2023-02-15T02:00:04;7.80;89.20
62154;DHT22;48140;45.486;9.226;2023-02-15T02:02:30;7.80;89.10
62154;DHT22;48140;45.486;9.226;2023-02-15T02:05:00;7.80;89.00
62154;DHT22;48140;45.486;9.226;2023-02-15T02:07:34;7.80;89.00
62154;DHT22;48140;45.486;9.226;2023-02-15T02:10:03;7.80;88.80
62154;DHT22;48140;45.486;9.226;2023-02-15T02:12:29;7.80;88.40
62154;DHT22;48140;45.486;9.226;2023-02-15T02:14:55;7.80;88.70
62154;DHT22;48140;45.486;9.226;2023-02-15T02:17:49;7.80;88.40
62154;DHT22;48140;45.486;9.226;2023-02-15T02:23:30;7.80;88.30
62154;DHT22;48140;45.486;9.226;2023-02-15T02:29:33;7.80;88.40
62154;DHT22;48140;45.486;9.226;2023-02-15T02:35:10;7.80;88.20
62154;DHT22;48140;45.486;9.226;2023-02-15T02:37:44;7.80;88.40
62154;DHT22;48140;45.486;9.226;2023-02-15T02:40:39;7.80;88.20
62154;DHT22;48140;45.486;9.226;2023-02-15T02:46:54;7.70;88.30
62154;DHT22;48140;45.486;9.226;2023-02-15T02:48:54;7.60;88.40
62154;DHT22;48140;45.486;9.226;2023-02-15T02:51:20;7.70;88.20
62154;DHT22;48140;45.486;9.226;2023-02-15T02:53:53;7.70;88.20
62154;DHT22;48140;45.486;9.226;2023-02-15T02:56:32;7.70;88.30
62154;DHT22;48140;45.486;9.226;2023-02-15T02:59:11;7.70;88.30
62154;DHT22;48140;45.486;9.226;2023-02-15T03:01:40;7.70;88.30
62154;DHT22;48140;45.486;9.226;2023-02-15T03:04:25;7.70;88.30
62154;DHT22;48140;45.486;9.226;2023-02-15T03:07:02;7.60;88.50
62154;DHT22;48140;45.486;9.226;2023-02-15T03:09:33;7.60;88.50
62154;DHT22;48140;45.486;9.226;2023-02-15T03:12:17;7.60;88.50
62154;DHT22;48140;45.486;9.226;2023-02-15T03:14:50;7.60;88.50
62154;DHT22;48140;45.486;9.226;2023-02-15T03:17:18;7.60;88.70
62154;DHT22;48140;45.486;9.226;2023-02-15T03:19:45;7.50;88.80
62154;DHT22;48140;45.486;9.226;2023-02-15T03:24:56;7.50;88.60
62154;DHT22;48140;45.486;9.226;2023-02-15T03:27:25;7.60;88.50
62154;DHT22;48140;45.486;9.226;2023-02-15T03:29:55;7.50;88.80
62154;DHT22;48140;45.486;9.226;2023-02-15T03:32:21;7.50;89.10
62154;DHT22;48140;45.486;9.226;2023-02-15T03:34:48;7.50;88.90
62154;DHT22;48140;45.486;9.226;2023-02-15T03:37:36;7.50;89.00
62154;DHT22;48140;45.486;9.226;2023-02-15T03:43:00;7.40;89.10
62154;DHT22;48140;45.486;9.226;2023-02-15T03:45:30;7.40;89.00
62154;DHT22;48140;45.486;9.226;2023-02-15T03:47:57;7.40;89.70
62154;DHT22;48140;45.486;9.226;2023-02-15T03:50:28;7.40;88.50
62154;DHT22;48140;45.486;9.226;2023-02-15T03:53:16;7.40;88.60
62154;DHT22;48140;45.486;9.226;2023-02-15T03:55:46;7.40;88.90
62154;DHT22;48140;45.486;9.226;2023-02-15T03:58:12;7.40;88.70
62154;DHT22;48140;45.486;9.226;2023-02-15T04:00:59;7.40;88.80
62154;DHT22;48140;45.486;9.226;2023-02-15T04:03:53;7.40;88.90
62154;DHT22;48140;45.486;9.226;2023-02-15T04:06:20;7.40;89.00
62154;DHT22;48140;45.486;9.226;2023-02-15T04:08:45;7.40;89.50
62154;DHT22;48140;45.486;9.226;2023-02-15T04:11:30;7.30;89.20
62154;DHT22;48140;45.486;9.226;2023-02-15T04:13:55;7.30;89.20
62154;DHT22;48140;45.486;9.226;2023-02-15T04:16:25;7.40;89.40
62154;DHT22;48140;45.486;9.226;2023-02-15T04:18:51;7.30;89.50
62154;DHT22;48140;45.486;9.226;2023-02-15T04:21:35;7.30;89.50
62154;DHT22;48140;45.486;9.226;2023-02-15T04:24:19;7.30;89.40
62154;DHT22;48140;45.486;9.226;2023-02-15T04:27:04;7.30;89.60
62154;DHT22;48140;45.486;9.226;2023-02-15T04:29:31;7.30;89.60
62154;DHT22;48140;45.486;9.226;2023-02-15T04:32:00;7.30;89.40
62154;DHT22;48140;45.486;9.226;2023-02-15T04:34:26;7.30;89.60
62154;DHT22;48140;45.486;9.226;2023-02-15T04:36:53;7.30;89.60
62154;DHT22;48140;45.486;9.226;2023-02-15T04:39:18;7.30;89.60
62154;DHT22;48140;45.486;9.226;2023-02-15T04:41:45;7.30;89.60
62154;DHT22;48140;45.486;9.226;2023-02-15T04:44:10;7.20;89.70
62154;DHT22;48140;45.486;9.226;2023-02-15T04:46:36;7.30;89.80
62154;DHT22;48140;45.486;9.226;2023-02-15T04:49:02;7.40;89.80
62154;DHT22;48140;45.486;9.226;2023-02-15T04:51:28;7.20;89.60
62154;DHT22;48140;45.486;9.226;2023-02-15T04:53:54;7.10;89.90
62154;DHT22;48140;45.486;9.226;2023-02-15T04:56:20;7.10;90.00
62154;DHT22;48140;45.486;9.226;2023-02-15T04:58:46;7.10;90.00
62154;DHT22;48140;45.486;9.226;2023-02-15T05:01:12;7.10;89.90
62154;DHT22;48140;45.486;9.226;2023-02-15T05:03:37;7.10;89.80
62154;DHT22;48140;45.486;9.226;2023-02-15T05:06:04;7.10;90.00
62154;DHT22;48140;45.486;9.226;2023-02-15T05:08:30;7.10;89.90
62154;DHT22;48140;45.486;9.226;2023-02-15T05:10:56;7.10;89.80
62154;DHT22;48140;45.486;9.226;2023-02-15T05:13:21;7.10;89.80
62154;DHT22;48140;45.486;9.226;2023-02-15T05:15:51;7.10;89.80
62154;DHT22;48140;45.486;9.226;2023-02-15T05:18:17;7.00;90.00
62154;DHT22;48140;45.486;9.226;2023-02-15T05:20:43;7.10;89.90
62154;DHT22;48140;45.486;9.226;2023-02-15T05:23:09;7.00;89.80
62154;DHT22;48140;45.486;9.226;2023-02-15T05:25:35;7.10;90.00
62154;DHT22;48140;45.486;9.226;2023-02-15T05:28:20;7.10;90.10
62154;DHT22;48140;45.486;9.226;2023-02-15T05:30:47;7.00;90.20
62154;DHT22;48140;45.486;9.226;2023-02-15T05:33:13;7.00;90.10
62154;DHT22;48140;45.486;9.226;2023-02-15T05:35:39;7.00;90.10
62154;DHT22;48140;45.486;9.226;2023-02-15T05:38:04;6.90;90.30
62154;DHT22;48140;45.486;9.226;2023-02-15T05:40:30;6.90;90.40
62154;DHT22;48140;45.486;9.226;2023-02-15T05:42:56;6.90;90.40
62154;DHT22;48140;45.486;9.226;2023-02-15T05:45:22;6.90;90.50
62154;DHT22;48140;45.486;9.226;2023-02-15T05:47:48;6.80;90.60
62154;DHT22;48140;45.486;9.226;2023-02-15T05:50:14;6.80;90.40
62154;DHT22;48140;45.486;9.226;2023-02-15T05:52:39;6.80;90.60
62154;DHT22;48140;45.486;9.226;2023-02-15T05:55:05;6.80;90.70
62154;DHT22;48140;45.486;9.226;2023-02-15T05:57:31;6.80;90.70
62154;DHT22;48140;45.486;9.226;2023-02-15T05:59:57;6.80;90.90
62154;DHT22;48140;45.486;9.226;2023-02-15T06:02:22;6.90;90.80
62154;DHT22;48140;45.486;9.226;2023-02-15T06:04:48;6.80;90.90
62154;DHT22;48140;45.486;9.226;2023-02-15T06:07:13;6.80;91.00
62154;DHT22;48140;45.486;9.226;2023-02-15T06:09:39;6.70;91.00
62154;DHT22;48140;45.486;9.226;2023-02-15T06:12:05;6.80;91.00
62154;DHT22;48140;45.486;9.226;2023-02-15T06:14:31;6.80;91.00
62154;DHT22;48140;45.486;9.226;2023-02-15T06:16:56;6.70;91.20
62154;DHT22;48140;45.486;9.226;2023-02-15T06:19:22;6.70;91.00
62154;DHT22;48140;45.486;9.226;2023-02-15T06:21:48;6.70;91.00
62154;DHT22;48140;45.486;9.226;2023-02-15T06:24:14;6.70;91.10
62154;DHT22;48140;45.486;9.226;2023-02-15T06:26:40;6.80;91.30
62154;DHT22;48140;45.486;9.226;2023-02-15T06:29:06;6.80;91.10
62154;DHT22;48140;45.486;9.226;2023-02-15T06:31:31;6.80;90.90
62154;DHT22;48140;45.486;9.226;2023-02-15T06:33:57;6.80;90.80
62154;DHT22;48140;45.486;9.226;2023-02-15T06:36:27;6.80;90.80
62154;DHT22;48140;45.486;9.226;2023-02-15T06:38:54;6.80;90.70
62154;DHT22;48140;45.486;9.226;2023-02-15T06:41:19;6.90;90.60
62154;DHT22;48140;45.486;9.226;2023-02-15T06:43:45;6.90;90.60
62154;DHT22;48140;45.486;9.226;2023-02-15T06:46:11;6.90;90.50
62154;DHT22;48140;45.486;9.226;2023-02-15T06:48:36;6.90;90.50
62154;DHT22;48140;45.486;9.226;2023-02-15T06:51:02;7.00;90.40
62154;DHT22;48140;45.486;9.226;2023-02-15T06:53:27;7.00;90.40
62154;DHT22;48140;45.486;9.226;2023-02-15T06:56:00;7.00;90.20
62154;DHT22;48140;45.486;9.226;2023-02-15T06:58:28;7.10;90.30
62154;DHT22;48140;45.486;9.226;2023-02-15T07:00:53;7.20;90.20
62154;DHT22;48140;45.486;9.226;2023-02-15T07:03:19;7.20;90.20
62154;DHT22;48140;45.486;9.226;2023-02-15T07:05:45;7.30;90.00
62154;DHT22;48140;45.486;9.226;2023-02-15T07:08:12;7.30;89.90
62154;DHT22;48140;45.486;9.226;2023-02-15T07:10:38;7.40;89.80
62154;DHT22;48140;45.486;9.226;2023-02-15T07:13:03;7.40;89.70
62154;DHT22;48140;45.486;9.226;2023-02-15T07:15:30;7.50;89.20
62154;DHT22;48140;45.486;9.226;2023-02-15T07:17:57;7.50;89.10
62154;DHT22;48140;45.486;9.226;2023-02-15T07:20:23;7.50;89.30
62154;DHT22;48140;45.486;9.226;2023-02-15T07:22:50;7.50;89.30
62154;DHT22;48140;45.486;9.226;2023-02-15T07:25:16;7.50;88.80
62154;DHT22;48140;45.486;9.226;2023-02-15T07:27:42;7.50;88.70
62154;DHT22;48140;45.486;9.226;2023-02-15T07:30:11;7.50;88.30
62154;DHT22;48140;45.486;9.226;2023-02-15T07:32:37;7.50;88.50
62154;DHT22;48140;45.486;9.226;2023-02-15T07:35:23;7.50;88.20
62154;DHT22;48140;45.486;9.226;2023-02-15T07:37:48;7.50;88.70
62154;DHT22;48140;45.486;9.226;2023-02-15T07:40:14;7.50;88.30
62154;DHT22;48140;45.486;9.226;2023-02-15T07:42:40;7.60;87.90
62154;DHT22;48140;45.486;9.226;2023-02-15T07:45:05;7.60;87.60
62154;DHT22;48140;45.486;9.226;2023-02-15T07:47:31;7.70;87.80
62154;DHT22;48140;45.486;9.226;2023-02-15T07:49:57;7.70;86.90
62154;DHT22;48140;45.486;9.226;2023-02-15T07:52:22;7.80;87.00
62154;DHT22;48140;45.486;9.226;2023-02-15T07:54:48;7.90;86.60
62154;DHT22;48140;45.486;9.226;2023-02-15T07:57:14;8.00;86.20
62154;DHT22;48140;45.486;9.226;2023-02-15T07:59:39;8.00;86.00
62154;DHT22;48140;45.486;9.226;2023-02-15T08:02:09;8.10;85.60
62154;DHT22;48140;45.486;9.226;2023-02-15T08:04:35;8.20;85.50
62154;DHT22;48140;45.486;9.226;2023-02-15T08:07:01;8.20;84.90
62154;DHT22;48140;45.486;9.226;2023-02-15T08:09:26;8.30;84.30
62154;DHT22;48140;45.486;9.226;2023-02-15T08:11:52;8.40;83.50
62154;DHT22;48140;45.486;9.226;2023-02-15T08:14:21;8.50;83.00
62154;DHT22;48140;45.486;9.226;2023-02-15T08:16:48;8.50;82.80
62154;DHT22;48140;45.486;9.226;2023-02-15T08:19:20;8.60;82.50
62154;DHT22;48140;45.486;9.226;2023-02-15T08:21:55;8.60;82.40
62154;DHT22;48140;45.486;9.226;2023-02-15T08:24:23;8.70;81.60
62154;DHT22;48140;45.486;9.226;2023-02-15T08:26:51;8.80;81.70
62154;DHT22;48140;45.486;9.226;2023-02-15T08:29:19;9.00;81.10
62154;DHT22;48140;45.486;9.226;2023-02-15T08:31:45;9.10;80.00
62154;DHT22;48140;45.486;9.226;2023-02-15T08:34:15;9.20;79.80
62154;DHT22;48140;45.486;9.226;2023-02-15T08:36:41;9.20;79.20
62154;DHT22;48140;45.486;9.226;2023-02-15T08:39:07;9.40;79.00
62154;DHT22;48140;45.486;9.226;2023-02-15T08:41:34;9.50;78.50
62154;DHT22;48140;45.486;9.226;2023-02-15T08:44:04;9.70;77.70
62154;DHT22;48140;45.486;9.226;2023-02-15T08:46:32;9.80;76.70
62154;DHT22;48140;45.486;9.226;2023-02-15T08:48:58;10.30;75.30
62154;DHT22;48140;45.486;9.226;2023-02-15T08:51:27;10.60;73.60
62154;DHT22;48140;45.486;9.226;2023-02-15T08:53:55;10.90;71.70
62154;DHT22;48140;45.486;9.226;2023-02-15T08:56:26;11.30;69.70
62154;DHT22;48140;45.486;9.226;2023-02-15T08:58:53;11.80;66.80
62154;DHT22;48140;45.486;9.226;2023-02-15T09:01:21;12.20;64.80
62154;DHT22;48140;45.486;9.226;2023-02-15T09:03:49;12.50;61.50
62154;DHT22;48140;45.486;9.226;2023-02-15T09:06:16;12.70;61.10
62154;DHT22;48140;45.486;9.226;2023-02-15T09:08:42;13.10;58.30
62154;DHT22;48140;45.486;9.226;2023-02-15T09:11:11;13.30;55.90
62154;DHT22;48140;45.486;9.226;2023-02-15T09:13:37;13.50;55.60
62154;DHT22;48140;45.486;9.226;2023-02-15T09:16:05;13.70;52.10
62154;DHT22;48140;45.486;9.226;2023-02-15T09:18:33;13.90;51.90
62154;DHT22;48140;45.486;9.226;2023-02-15T09:21:16;14.30;49.70
62154;DHT22;48140;45.486;9.226;2023-02-15T09:23:42;14.70;48.50
62154;DHT22;48140;45.486;9.226;2023-02-15T09:26:14;15.00;47.30
62154;DHT22;48140;45.486;9.226;2023-02-15T09:28:43;15.40;45.70
62154;DHT22;48140;45.486;9.226;2023-02-15T09:31:19;15.60;43.30
62154;DHT22;48140;45.486;9.226;2023-02-15T09:33:46;15.90;41.90
62154;DHT22;48140;45.486;9.226;2023-02-15T09:36:19;16.20;40.80
62154;DHT22;48140;45.486;9.226;2023-02-15T09:38:45;16.60;39.80
62154;DHT22;48140;45.486;9.226;2023-02-15T09:44:16;17.40;37.60
62154;DHT22;48140;45.486;9.226;2023-02-15T09:46:50;17.50;36.80
62154;DHT22;48140;45.486;9.226;2023-02-15T09:52:11;17.10;36.40
62154;DHT22;48140;45.486;9.226;2023-02-15T10:00:21;18.40;33.90
62154;DHT22;48140;45.486;9.226;2023-02-15T10:06:09;18.50;32.50
62154;DHT22;48140;45.486;9.226;2023-02-15T10:11:16;19.10;31.30
62154;DHT22;48140;45.486;9.226;2023-02-15T10:14:21;18.80;31.30
62154;DHT22;48140;45.486;9.226;2023-02-15T10:22:47;19.40;30.00
62154;DHT22;48140;45.486;9.226;2023-02-15T10:27:49;19.30;30.00
62154;DHT22;48140;45.486;9.226;2023-02-15T10:32:59;19.80;30.00
62154;DHT22;48140;45.486;9.226;2023-02-15T10:38:20;20.30;29.80
62154;DHT22;48140;45.486;9.226;2023-02-15T10:41:00;20.20;29.50
62154;DHT22;48140;45.486;9.226;2023-02-15T10:43:56;20.10;29.80
62154;DHT22;48140;45.486;9.226;2023-02-15T10:55:42;21.00;29.70
62154;DHT22;48140;45.486;9.226;2023-02-15T11:03:42;21.50;30.00
62154;DHT22;48140;45.486;9.226;2023-02-15T11:06:14;21.20;29.60
62154;DHT22;48140;45.486;9.226;2023-02-15T11:08:47;21.60;29.20
62154;DHT22;48140;45.486;9.226;2023-02-15T11:11:24;21.90;28.90
62154;DHT22;48140;45.486;9.226;2023-02-15T11:16:50;22.10;28.60
62154;DHT22;48140;45.486;9.226;2023-02-15T11:19:28;22.40;28.40
62154;DHT22;48140;45.486;9.226;2023-02-15T11:21:59;22.60;28.20
62154;DHT22;48140;45.486;9.226;2023-02-15T11:24:28;22.90;27.40
62154;DHT22;48140;45.486;9.226;2023-02-15T11:27:00;23.00;27.40
62154;DHT22;48140;45.486;9.226;2023-02-15T11:32:23;23.70;26.80
62154;DHT22;48140;45.486;9.226;2023-02-15T11:40:27;24.00;26.10
62154;DHT22;48140;45.486;9.226;2023-02-15T11:43:00;24.00;26.10
62154;DHT22;48140;45.486;9.226;2023-02-15T11:45:34;23.80;26.20
62154;DHT22;48140;45.486;9.226;2023-02-15T11:48:01;24.10;26.20
62154;DHT22;48140;45.486;9.226;2023-02-15T11:50:32;24.10;26.80
62154;DHT22;48140;45.486;9.226;2023-02-15T11:53:05;23.90;26.30
62154;DHT22;48140;45.486;9.226;2023-02-15T11:55:34;23.60;26.80
62154;DHT22;48140;45.486;9.226;2023-02-15T12:00:44;24.10;26.50
62154;DHT22;48140;45.486;9.226;2023-02-15T12:05:56;24.70;25.20
62154;DHT22;48140;45.486;9.226;2023-02-15T12:08:23;24.10;26.00
62154;DHT22;48140;45.486;9.226;2023-02-15T12:11:09;24.40;25.60
62154;DHT22;48140;45.486;9.226;2023-02-15T12:14:04;24.80;25.40
62154;DHT22;48140;45.486;9.226;2023-02-15T12:16:55;24.80;24.90
62154;DHT22;48140;45.486;9.226;2023-02-15T12:21:54;25.40;24.60
62154;DHT22;48140;45.486;9.226;2023-02-15T12:24:37;25.70;24.20
62154;DHT22;48140;45.486;9.226;2023-02-15T12:27:14;25.90;23.80
62154;DHT22;48140;45.486;9.226;2023-02-15T12:29:46;26.40;23.60
62154;DHT22;48140;45.486;9.226;2023-02-15T12:32:29;25.80;23.70
62154;DHT22;48140;45.486;9.226;2023-02-15T12:35:07;25.20;23.90
62154;DHT22;48140;45.486;9.226;2023-02-15T12:37:35;25.80;24.10
62154;DHT22;48140;45.486;9.226;2023-02-15T12:40:18;26.40;23.40
62154;DHT22;48140;45.486;9.226;2023-02-15T12:42:44;26.50;22.60
62154;DHT22;48140;45.486;9.226;2023-02-15T12:45:23;26.00;23.10
62154;DHT22;48140;45.486;9.226;2023-02-15T12:48:18;25.70;23.40
62154;DHT22;48140;45.486;9.226;2023-02-15T12:50:45;25.60;23.60
62154;DHT22;48140;45.486;9.226;2023-02-15T12:53:20;26.60;23.00
62154;DHT22;48140;45.486;9.226;2023-02-15T12:56:00;26.70;22.80
62154;DHT22;48140;45.486;9.226;2023-02-15T12:58:28;26.70;22.50
62154;DHT22;48140;45.486;9.226;2023-02-15T13:06:23;26.40;23.10
62154;DHT22;48140;45.486;9.226;2023-02-15T13:08:52;27.00;22.70
62154;DHT22;48140;45.486;9.226;2023-02-15T13:11:30;26.40;23.20
62154;DHT22;48140;45.486;9.226;2023-02-15T13:14:31;26.60;22.90
62154;DHT22;48140;45.486;9.226;2023-02-15T13:17:00;27.20;22.50
62154;DHT22;48140;45.486;9.226;2023-02-15T13:19:29;27.60;22.10
62154;DHT22;48140;45.486;9.226;2023-02-15T13:21:57;27.50;22.10
62154;DHT22;48140;45.486;9.226;2023-02-15T13:24:32;27.20;22.20
62154;DHT22;48140;45.486;9.226;2023-02-15T13:26:59;27.40;22.40
62154;DHT22;48140;45.486;9.226;2023-02-15T13:29:37;27.30;22.00
62154;DHT22;48140;45.486;9.226;2023-02-15T13:32:12;26.50;22.70
62154;DHT22;48140;45.486;9.226;2023-02-15T13:34:42;25.80;22.80
62154;DHT22;48140;45.486;9.226;2023-02-15T13:37:19;26.10;23.60
62154;DHT22;48140;45.486;9.226;2023-02-15T13:40:01;26.80;22.70
62154;DHT22;48140;45.486;9.226;2023-02-15T13:42:40;26.60;22.80
62154;DHT22;48140;45.486;9.226;2023-02-15T13:53:48;26.60;22.90
62154;DHT22;48140;45.486;9.226;2023-02-15T14:10:22;27.10;22.20
62154;DHT22;48140;45.486;9.226;2023-02-15T14:15:46;27.50;21.70
62154;DHT22;48140;45.486;9.226;2023-02-15T14:21:14;28.00;21.40
62154;DHT22;48140;45.486;9.226;2023-02-15T14:29:08;28.20;21.40
62154;DHT22;48140;45.486;9.226;2023-02-15T14:31:43;28.10;21.50
62154;DHT22;48140;45.486;9.226;2023-02-15T14:34:30;28.20;21.20
62154;DHT22;48140;45.486;9.226;2023-02-15T14:36:57;28.50;21.00
62154;DHT22;48140;45.486;9.226;2023-02-15T14:39:52;28.30;21.10
62154;DHT22;48140;45.486;9.226;2023-02-15T14:42:57;28.20;21.30
62154;DHT22;48140;45.486;9.226;2023-02-15T14:45:49;28.20;21.10
62154;DHT22;48140;45.486;9.226;2023-02-15T14:48:31;27.50;21.50
62154;DHT22;48140;45.486;9.226;2023-02-15T14:50:57;27.20;21.90
62154;DHT22;48140;45.486;9.226;2023-02-15T14:53:41;27.50;21.80
62154;DHT22;48140;45.486;9.226;2023-02-15T14:58:58;27.70;21.60
62154;DHT22;48140;45.486;9.226;2023-02-15T15:01:26;27.90;21.50
62154;DHT22;48140;45.486;9.226;2023-02-15T15:03:55;27.60;22.00
62154;DHT22;48140;45.486;9.226;2023-02-15T15:06:32;27.30;21.70
62154;DHT22;48140;45.486;9.226;2023-02-15T15:09:27;27.50;21.50
62154;DHT22;48140;45.486;9.226;2023-02-15T15:11:55;27.70;21.60
62154;DHT22;48140;45.486;9.226;2023-02-15T15:14:39;27.30;21.70
62154;DHT22;48140;45.486;9.226;2023-02-15T15:17:06;27.20;21.90
62154;DHT22;48140;45.486;9.226;2023-02-15T15:22:25;27.00;21.90
62154;DHT22;48140;45.486;9.226;2023-02-15T15:24:53;27.20;21.60
62154;DHT22;48140;45.486;9.226;2023-02-15T15:27:46;27.20;21.40
62154;DHT22;48140;45.486;9.226;2023-02-15T15:33:26;26.00;22.50
62154;DHT22;48140;45.486;9.226;2023-02-15T15:35:36;26.30;22.60
62154;DHT22;48140;45.486;9.226;2023-02-15T15:38:09;26.30;22.00
62154;DHT22;48140;45.486;9.226;2023-02-15T15:46:34;26.60;22.00
62154;DHT22;48140;45.486;9.226;2023-02-15T15:49:12;26.90;21.90
62154;DHT22;48140;45.486;9.226;2023-02-15T15:51:42;26.60;22.00
62154;DHT22;48140;45.486;9.226;2023-02-15T15:54:24;26.30;22.60
62154;DHT22;48140;45.486;9.226;2023-02-15T15:59:30;26.10;22.60
62154;DHT22;48140;45.486;9.226;2023-02-15T16:02:03;25.90;22.70
62154;DHT22;48140;45.486;9.226;2023-02-15T16:04:31;25.70;23.10
62154;DHT22;48140;45.486;9.226;2023-02-15T16:07:05;25.30;23.80
62154;DHT22;48140;45.486;9.226;2023-02-15T16:09:38;25.10;24.20
62154;DHT22;48140;45.486;9.226;2023-02-15T16:12:10;24.80;24.40
62154;DHT22;48140;45.486;9.226;2023-02-15T16:14:40;24.20;25.00
62154;DHT22;48140;45.486;9.226;2023-02-15T16:17:16;24.10;25.10
62154;DHT22;48140;45.486;9.226;2023-02-15T16:19:43;23.70;25.70
62154;DHT22;48140;45.486;9.226;2023-02-15T16:22:18;23.30;26.20
62154;DHT22;48140;45.486;9.226;2023-02-15T16:27:41;22.20;27.60
62154;DHT22;48140;45.486;9.226;2023-02-15T16:30:30;21.90;28.10
62154;DHT22;48140;45.486;9.226;2023-02-15T16:33:08;21.20;28.90
62154;DHT22;48140;45.486;9.226;2023-02-15T16:35:36;20.60;30.00
62154;DHT22;48140;45.486;9.226;2023-02-15T16:38:02;20.10;31.00
62154;DHT22;48140;45.486;9.226;2023-02-15T16:40:46;19.60;31.90
62154;DHT22;48140;45.486;9.226;2023-02-15T16:43:20;19.10;33.10
62154;DHT22;48140;45.486;9.226;2023-02-15T16:45:46;18.70;34.10
62154;DHT22;48140;45.486;9.226;2023-02-15T16:48:17;18.40;34.70
62154;DHT22;48140;45.486;9.226;2023-02-15T16:50:48;18.20;35.10
62154;DHT22;48140;45.486;9.226;2023-02-15T16:53:27;18.00;35.70
62154;DHT22;48140;45.486;9.226;2023-02-15T16:55:55;17.80;37.30
62154;DHT22;48140;45.486;9.226;2023-02-15T16:58:31;17.60;38.00
62154;DHT22;48140;45.486;9.226;2023-02-15T17:01:02;17.40;38.00
62154;DHT22;48140;45.486;9.226;2023-02-15T17:03:31;17.30;38.50
62154;DHT22;48140;45.486;9.226;2023-02-15T17:05:59;17.20;38.70
62154;DHT22;48140;45.486;9.226;2023-02-15T17:08:28;17.10;39.40
62154;DHT22;48140;45.486;9.226;2023-02-15T17:11:48;17.00;40.00
62154;DHT22;48140;45.486;9.226;2023-02-15T17:16:44;16.60;42.00
62154;DHT22;48140;45.486;9.226;2023-02-15T17:19:26;16.60;42.90
62154;DHT22;48140;45.486;9.226;2023-02-15T17:21:56;16.40;43.60
62154;DHT22;48140;45.486;9.226;2023-02-15T17:26:59;16.30;44.30
62154;DHT22;48140;45.486;9.226;2023-02-15T17:29:41;16.30;45.80
62154;DHT22;48140;45.486;9.226;2023-02-15T17:32:16;16.20;45.90
62154;DHT22;48140;45.486;9.226;2023-02-15T17:39:52;15.90;43.30
62154;DHT22;48140;45.486;9.226;2023-02-15T17:42:18;15.90;43.40
62154;DHT22;48140;45.486;9.226;2023-02-15T17:44:43;15.80;44.40
62154;DHT22;48140;45.486;9.226;2023-02-15T17:47:15;15.70;44.30
62154;DHT22;48140;45.486;9.226;2023-02-15T17:49:42;15.60;44.10
62154;DHT22;48140;45.486;9.226;2023-02-15T17:52:12;15.50;44.40
62154;DHT22;48140;45.486;9.226;2023-02-15T17:54:41;15.50;43.90
62154;DHT22;48140;45.486;9.226;2023-02-15T17:57:26;15.40;43.70
62154;DHT22;48140;45.486;9.226;2023-02-15T17:59:53;15.40;44.10
62154;DHT22;48140;45.486;9.226;2023-02-15T18:02:38;15.30;44.60
62154;DHT22;48140;45.486;9.226;2023-02-15T18:05:22;15.20;44.90
62154;DHT22;48140;45.486;9.226;2023-02-15T18:08:14;15.20;44.70
62154;DHT22;48140;45.486;9.226;2023-02-15T18:10:59;15.10;45.00
62154;DHT22;48140;45.486;9.226;2023-02-15T18:13:43;15.00;45.30
62154;DHT22;48140;45.486;9.226;2023-02-15T18:16:14;15.00;45.70
62154;DHT22;48140;45.486;9.226;2023-02-15T18:18:42;15.00;45.80
62154;DHT22;48140;45.486;9.226;2023-02-15T18:21:10;14.90;46.00
62154;DHT22;48140;45.486;9.226;2023-02-15T18:23:37;14.80;46.60
62154;DHT22;48140;45.486;9.226;2023-02-15T18:26:03;14.80;46.50
62154;DHT22;48140;45.486;9.226;2023-02-15T18:28:28;14.70;46.80
62154;DHT22;48140;45.486;9.226;2023-02-15T18:30:54;14.70;46.80
62154;DHT22;48140;45.486;9.226;2023-02-15T18:33:37;14.70;47.40
62154;DHT22;48140;45.486;9.226;2023-02-15T18:36:05;14.60;47.90
62154;DHT22;48140;45.486;9.226;2023-02-15T18:38:31;14.60;48.60
62154;DHT22;48140;45.486;9.226;2023-02-15T18:41:01;14.60;49.10